createdAt,value
2023-11-24T00:00:33.932Z,947.3
2023-11-24T00:01:36.114Z,947.3
2023-11-24T00:02:38.272Z,947.3
2023-11-24T00:03:40.629Z,947.3
2023-11-24T00:04:42.619Z,947.2
2023-11-24T00:05:44.432Z,947.3
2023-11-24T00:06:46.565Z,947.3
2023-11-24T00:07:48.401Z,947.2
2023-11-24T00:08:50.271Z,947.2
2023-11-24T00:09:52.205Z,947.2
2023-11-24T00:10:54.216Z,947.2
2023-11-24T00:11:55.975Z,947.2
2023-11-24T00:12:57.972Z,947.2
2023-11-24T00:13:59.946Z,947.2
2023-11-24T00:15:02.182Z,947.2
2023-11-24T00:16:04.440Z,947.2
2023-11-24T00:17:06.419Z,947.1
2023-11-24T00:18:08.257Z,947.1
2023-11-24T00:19:10.441Z,947
2023-11-24T00:20:12.471Z,947
2023-11-24T00:21:14.276Z,947
2023-11-24T00:22:18.731Z,947
2023-11-24T00:23:20.492Z,947
2023-11-24T00:24:22.616Z,946.9
2023-11-24T00:25:24.526Z,946.9
2023-11-24T00:26:26.240Z,946.9
2023-11-24T00:27:28.166Z,946.9
2023-11-24T00:28:30.058Z,946.8
2023-11-24T00:29:31.803Z,946.8
2023-11-24T00:30:34.194Z,946.8
2023-11-24T00:31:36.158Z,946.7
2023-11-24T00:32:38.227Z,946.7
2023-11-24T00:33:40.773Z,946.8
2023-11-24T00:34:43.361Z,946.8
2023-11-24T00:35:45.109Z,946.8
2023-11-24T00:36:47.161Z,946.6
2023-11-24T00:37:48.993Z,946.5
2023-11-24T00:38:50.715Z,946.5
2023-11-24T00:39:52.657Z,946.5
2023-11-24T00:40:54.584Z,946.5
2023-11-24T00:41:56.310Z,946.6
2023-11-24T00:42:58.177Z,946.6
2023-11-24T00:43:59.995Z,946.6
2023-11-24T00:45:01.818Z,946.6
2023-11-24T00:46:03.746Z,946.6
2023-11-24T00:47:05.874Z,946.6
2023-11-24T00:48:08.406Z,946.5
2023-11-24T00:49:10.271Z,946.5
2023-11-24T00:50:12.070Z,946.5
2023-11-24T00:51:13.830Z,946.5
2023-11-24T00:52:15.635Z,946.4
2023-11-24T00:53:17.422Z,946.3
2023-11-24T00:54:19.274Z,946.3
2023-11-24T00:55:20.996Z,946.4
2023-11-24T00:56:22.765Z,946.4
2023-11-24T00:57:24.829Z,946.4
2023-11-24T00:58:26.670Z,946.4
2023-11-24T00:59:28.475Z,946.4
2023-11-24T01:00:30.516Z,946.4
2023-11-24T01:01:32.838Z,946.4
2023-11-24T01:02:35.072Z,946.3
2023-11-24T01:03:37.321Z,946.3
2023-11-24T01:04:39.384Z,946.3
2023-11-24T01:05:41.305Z,946.3
2023-11-24T01:06:43.354Z,946.2
2023-11-24T01:07:45.313Z,946.2
2023-11-24T01:08:47.092Z,946.2
2023-11-24T01:09:48.946Z,946.2
2023-11-24T01:10:50.763Z,946.1
2023-11-24T01:11:52.503Z,946.1
2023-11-24T01:12:54.469Z,946.1
2023-11-24T01:13:56.384Z,946
2023-11-24T01:14:58.138Z,946
2023-11-24T01:16:00.175Z,946
2023-11-24T01:17:02.522Z,946.1
2023-11-24T01:18:04.971Z,946
2023-11-24T01:19:07.115Z,945.9
2023-11-24T01:20:09.040Z,945.8
2023-11-24T01:21:10.834Z,945.8
2023-11-24T01:22:12.538Z,945.8
2023-11-24T01:23:14.292Z,945.8
2023-11-24T01:24:16.295Z,945.8
2023-11-24T01:25:18.064Z,945.8
2023-11-24T01:26:19.852Z,945.8
2023-11-24T01:27:21.848Z,945.8
2023-11-24T01:28:23.933Z,945.8
2023-11-24T01:29:25.755Z,945.8
2023-11-24T01:30:27.717Z,945.8
2023-11-24T01:31:29.810Z,945.7
2023-11-24T01:32:31.818Z,945.7
2023-11-24T01:33:33.959Z,945.6
2023-11-24T01:34:36.339Z,945.6
2023-11-24T01:35:38.310Z,945.6
2023-11-24T01:36:40.455Z,945.5
2023-11-24T01:37:42.454Z,945.6
2023-11-24T01:38:44.206Z,945.6
2023-11-24T01:39:46.377Z,945.5
2023-11-24T01:40:48.292Z,945.6
2023-11-24T01:41:50.060Z,945.6
2023-11-24T01:42:52.120Z,945.5
2023-11-24T01:43:54.230Z,945.5
2023-11-24T01:44:56.083Z,945.5
2023-11-24T01:45:58.216Z,945.5
2023-11-24T01:47:00.566Z,945.4
2023-11-24T01:48:02.727Z,945.4
2023-11-24T01:49:04.844Z,945.4
2023-11-24T01:50:06.597Z,945.3
2023-11-24T01:51:08.552Z,945.3
2023-11-24T01:52:10.382Z,945.3
2023-11-24T01:53:12.128Z,945.3
2023-11-24T01:54:14.089Z,945.3
2023-11-24T01:55:16.288Z,945.3
2023-11-24T01:56:18.053Z,945.2
2023-11-24T01:57:19.834Z,945.1
2023-11-24T01:58:21.606Z,945.2
2023-11-24T01:59:23.483Z,945.2
2023-11-24T02:00:25.400Z,945.1
2023-11-24T02:01:27.482Z,945.1
2023-11-24T02:02:29.686Z,945.1
2023-11-24T02:03:32.485Z,945
2023-11-24T02:04:34.636Z,945
2023-11-24T02:05:36.396Z,945.1
2023-11-24T02:06:38.350Z,945.1
2023-11-24T02:07:40.195Z,945
2023-11-24T02:08:41.985Z,945
2023-11-24T02:09:43.921Z,945
2023-11-24T02:10:45.975Z,944.9
2023-11-24T02:11:47.704Z,945
2023-11-24T02:12:49.663Z,944.9
2023-11-24T02:13:51.786Z,944.9
2023-11-24T02:14:53.522Z,944.9
2023-11-24T02:15:58.505Z,944.9
2023-11-24T02:17:00.975Z,944.9
2023-11-24T02:18:03.048Z,944.8
2023-11-24T02:19:05.375Z,944.7
2023-11-24T02:20:07.430Z,944.7
2023-11-24T02:21:09.160Z,944.7
2023-11-24T02:22:10.906Z,944.7
2023-11-24T02:23:12.708Z,944.7
2023-11-24T02:24:14.485Z,944.7
2023-11-24T02:25:16.332Z,944.7
2023-11-24T02:26:18.229Z,944.6
2023-11-24T02:27:20.003Z,944.6
2023-11-24T02:28:21.899Z,944.6
2023-11-24T02:29:23.949Z,944.6
2023-11-24T02:30:25.804Z,944.6
2023-11-24T02:31:28.037Z,944.6
2023-11-24T02:32:30.238Z,944.6
2023-11-24T02:33:32.055Z,944.6
2023-11-24T02:34:34.269Z,944.6
2023-11-24T02:35:36.200Z,944.6
2023-11-24T02:36:38.136Z,944.5
2023-11-24T02:37:40.122Z,944.5
2023-11-24T02:38:41.842Z,944.5
2023-11-24T02:39:43.832Z,944.4
2023-11-24T02:40:45.693Z,944.4
2023-11-24T02:41:47.478Z,944.3
2023-11-24T02:42:49.393Z,944.4
2023-11-24T02:43:51.607Z,944.3
2023-11-24T02:44:53.701Z,944.3
2023-11-24T02:45:55.753Z,944.3
2023-11-24T02:46:57.685Z,944.2
2023-11-24T02:47:59.766Z,944.2
2023-11-24T02:49:02.259Z,944.2
2023-11-24T02:50:04.348Z,944.2
2023-11-24T02:51:06.190Z,944.2
2023-11-24T02:52:08.166Z,944.2
2023-11-24T02:53:09.912Z,944.2
2023-11-24T02:54:11.702Z,944.3
2023-11-24T02:55:13.535Z,944.3
2023-11-24T02:56:15.324Z,944.3
2023-11-24T02:57:17.122Z,944.2
2023-11-24T02:58:18.946Z,944.2
2023-11-24T02:59:20.747Z,944.2
2023-11-24T03:00:22.598Z,944.2
2023-11-24T03:01:24.526Z,944.1
2023-11-24T03:02:26.955Z,944.1
2023-11-24T03:03:29.234Z,944.2
2023-11-24T03:04:31.651Z,944.2
2023-11-24T03:05:33.872Z,944.2
2023-11-24T03:06:35.840Z,944.1
2023-11-24T03:07:37.813Z,944.1
2023-11-24T03:08:39.581Z,944.1
2023-11-24T03:09:41.519Z,944.2
2023-11-24T03:10:43.464Z,944.2
2023-11-24T03:11:45.181Z,944.1
2023-11-24T03:12:47.312Z,944.1
2023-11-24T03:13:49.211Z,944.1
2023-11-24T03:14:51.092Z,944.1
2023-11-24T03:15:53.285Z,944.1
2023-11-24T03:16:55.506Z,944.1
2023-11-24T03:17:57.513Z,944
2023-11-24T03:18:59.672Z,944
2023-11-24T03:20:01.663Z,944
2023-11-24T03:21:03.509Z,943.9
2023-11-24T03:22:05.380Z,943.9
2023-11-24T03:23:07.361Z,943.9
2023-11-24T03:24:09.147Z,943.9
2023-11-24T03:25:10.907Z,943.8
2023-11-24T03:26:12.648Z,943.8
2023-11-24T03:27:14.425Z,943.8
2023-11-24T03:28:16.216Z,943.8
2023-11-24T03:29:17.951Z,943.7
2023-11-24T03:30:19.670Z,943.7
2023-11-24T03:31:21.438Z,943.7
2023-11-24T03:32:23.238Z,943.6
2023-11-24T03:33:25.600Z,943.6
2023-11-24T03:34:27.869Z,943.6
2023-11-24T03:35:30.005Z,943.6
2023-11-24T03:36:31.979Z,943.5
2023-11-24T03:37:33.926Z,943.5
2023-11-24T03:38:35.686Z,943.6
2023-11-24T03:39:37.522Z,943.5
2023-11-24T03:40:39.502Z,943.5
2023-11-24T03:41:41.301Z,943.5
2023-11-24T03:42:43.199Z,943.4
2023-11-24T03:43:45.187Z,943.4
2023-11-24T03:44:46.958Z,943.4
2023-11-24T03:45:48.887Z,943.4
2023-11-24T03:46:51.039Z,943.4
2023-11-24T03:47:53.093Z,943.4
2023-11-24T03:48:55.345Z,943.4
2023-11-24T03:49:57.229Z,943.4
2023-11-24T03:50:58.957Z,943.3
2023-11-24T03:52:01.137Z,943.3
2023-11-24T03:53:03.203Z,943.2
2023-11-24T03:54:04.970Z,943.2
2023-11-24T03:55:06.930Z,943.2
2023-11-24T03:56:08.820Z,943.2
2023-11-24T03:57:10.617Z,943.2
2023-11-24T03:58:12.353Z,943.2
2023-11-24T03:59:14.241Z,943.2
2023-11-24T04:00:16.011Z,943.2
2023-11-24T04:01:18.196Z,943.1
2023-11-24T04:02:20.353Z,943.1
2023-11-24T04:03:22.572Z,943.1
2023-11-24T04:04:24.627Z,943.2
2023-11-24T04:05:26.416Z,943.2
2023-11-24T04:06:28.454Z,943.2
2023-11-24T04:07:30.488Z,943.2
2023-11-24T04:08:32.240Z,943.2
2023-11-24T04:09:34.202Z,943.1
2023-11-24T04:10:36.168Z,943.1
2023-11-24T04:11:37.864Z,943.2
2023-11-24T04:12:39.879Z,943.2
2023-11-24T04:13:41.791Z,943.1
2023-11-24T04:14:43.614Z,943.1
2023-11-24T04:15:45.708Z,943.2
2023-11-24T04:16:47.949Z,943.2
2023-11-24T04:17:50.368Z,943.2
2023-11-24T04:18:52.618Z,943.2
2023-11-24T04:19:54.520Z,943.2
2023-11-24T04:20:56.254Z,943.2
2023-11-24T04:21:58.244Z,943.2
2023-11-24T04:23:00.335Z,943.2
2023-11-24T04:24:02.091Z,943.2
2023-11-24T04:25:04.059Z,943.2
2023-11-24T04:26:05.967Z,943.3
2023-11-24T04:27:07.726Z,943.3
2023-11-24T04:28:09.661Z,943.3
2023-11-24T04:29:11.484Z,943.3
2023-11-24T04:30:13.277Z,943.3
2023-11-24T04:31:15.038Z,943.3
2023-11-24T04:32:16.825Z,943.3
2023-11-24T04:33:18.603Z,943.3
2023-11-24T04:34:20.655Z,943.3
2023-11-24T04:35:22.679Z,943.4
2023-11-24T04:36:24.453Z,943.3
2023-11-24T04:37:26.256Z,943.4
2023-11-24T04:38:28.145Z,943.4
2023-11-24T04:39:30.063Z,943.4
2023-11-24T04:40:31.914Z,943.3
2023-11-24T04:41:33.735Z,943.3
2023-11-24T04:42:36.772Z,943.3
2023-11-24T04:43:38.682Z,943.3
2023-11-24T04:44:40.563Z,943.3
2023-11-24T04:45:42.698Z,943.2
2023-11-24T04:46:45.328Z,943.2
2023-11-24T04:47:47.529Z,943.3
2023-11-24T04:48:49.605Z,943.3
2023-11-24T04:49:51.591Z,943.2
2023-11-24T04:50:53.428Z,943.3
2023-11-24T04:51:55.405Z,943.3
2023-11-24T04:52:57.232Z,943.3
2023-11-24T04:53:59.389Z,943.2
2023-11-24T04:55:01.550Z,943.3
2023-11-24T04:56:03.586Z,943.2
2023-11-24T04:57:05.328Z,943.2
2023-11-24T04:58:07.180Z,943.2
2023-11-24T04:59:09.118Z,943.2
2023-11-24T05:00:10.873Z,943.2
2023-11-24T05:01:13.254Z,943.2
2023-11-24T05:02:15.610Z,943.2
2023-11-24T05:03:17.614Z,943.2
2023-11-24T05:04:19.845Z,943.2
2023-11-24T05:05:21.842Z,943.2
2023-11-24T05:06:23.854Z,943.2
2023-11-24T05:07:25.666Z,943.2
2023-11-24T05:08:27.497Z,943.2
2023-11-24T05:09:29.495Z,943.2
2023-11-24T05:10:31.365Z,943.2
2023-11-24T05:11:33.161Z,943.2
2023-11-24T05:12:34.985Z,943.2
2023-11-24T05:13:36.731Z,943.1
2023-11-24T05:14:38.492Z,943.1
2023-11-24T05:15:40.706Z,943.1
2023-11-24T05:16:42.614Z,943.1
2023-11-24T05:17:44.469Z,943
2023-11-24T05:18:46.319Z,943
2023-11-24T05:19:48.324Z,943
2023-11-24T05:20:50.020Z,943
2023-11-24T05:21:51.871Z,942.9
2023-11-24T05:22:53.892Z,942.9
2023-11-24T05:23:55.934Z,942.9
2023-11-24T05:24:58.161Z,942.9
2023-11-24T05:26:00.187Z,942.9
2023-11-24T05:27:01.961Z,942.8
2023-11-24T05:28:04.090Z,942.8
2023-11-24T05:29:06.053Z,942.8
2023-11-24T05:30:07.844Z,942.8
2023-11-24T05:31:09.963Z,942.8
2023-11-24T05:32:12.006Z,942.9
2023-11-24T05:33:13.772Z,942.8
2023-11-24T05:34:15.576Z,942.7
2023-11-24T05:35:17.295Z,942.8
2023-11-24T05:36:19.105Z,942.8
2023-11-24T05:37:20.857Z,942.7
2023-11-24T05:38:22.860Z,942.7
2023-11-24T05:39:24.662Z,942.7
2023-11-24T05:40:26.562Z,942.7
2023-11-24T05:41:28.340Z,942.7
2023-11-24T05:42:30.344Z,942.8
2023-11-24T05:43:32.383Z,942.8
2023-11-24T05:44:34.215Z,942.7
2023-11-24T05:45:36.564Z,942.6
2023-11-24T05:46:38.601Z,942.6
2023-11-24T05:47:40.509Z,942.6
2023-11-24T05:48:42.554Z,942.6
2023-11-24T05:49:44.712Z,942.6
2023-11-24T05:50:46.414Z,942.6
2023-11-24T05:51:48.380Z,942.6
2023-11-24T05:52:50.335Z,942.5
2023-11-24T05:53:52.217Z,942.6
2023-11-24T05:54:54.289Z,942.6
2023-11-24T05:55:56.208Z,942.6
2023-11-24T05:56:58.006Z,942.6
2023-11-24T05:58:00.021Z,942.6
2023-11-24T05:59:02.127Z,942.6
2023-11-24T06:00:03.976Z,942.6
2023-11-24T06:01:05.972Z,942.5
2023-11-24T06:02:08.239Z,942.6
2023-11-24T06:03:10.691Z,942.6
2023-11-24T06:04:12.796Z,942.7
2023-11-24T06:05:15.366Z,942.7
2023-11-24T06:06:17.317Z,942.7
2023-11-24T06:07:19.130Z,942.7
2023-11-24T06:08:20.913Z,942.7
2023-11-24T06:09:22.779Z,942.7
2023-11-24T06:10:24.499Z,942.7
2023-11-24T06:11:26.376Z,942.7
2023-11-24T06:12:28.117Z,942.7
2023-11-24T06:13:29.872Z,942.7
2023-11-24T06:14:31.693Z,942.7
2023-11-24T06:15:33.539Z,942.6
2023-11-24T06:16:35.391Z,942.6
2023-11-24T06:17:37.521Z,942.7
2023-11-24T06:18:39.369Z,942.6
2023-11-24T06:19:41.200Z,942.6
2023-11-24T06:20:42.983Z,942.6
2023-11-24T06:21:44.932Z,942.6
2023-11-24T06:22:46.770Z,942.6
2023-11-24T06:23:48.557Z,942.6
2023-11-24T06:24:50.712Z,942.6
2023-11-24T06:25:52.730Z,942.6
2023-11-24T06:26:54.727Z,942.6
2023-11-24T06:27:56.833Z,942.6
2023-11-24T06:28:58.681Z,942.7
2023-11-24T06:30:00.590Z,942.7
2023-11-24T06:31:02.607Z,942.7
2023-11-24T06:32:04.386Z,942.6
2023-11-24T06:33:06.555Z,942.6
2023-11-24T06:34:08.908Z,942.6
2023-11-24T06:35:10.803Z,942.6
2023-11-24T06:36:12.755Z,942.6
2023-11-24T06:37:14.756Z,942.6
2023-11-24T06:38:16.855Z,942.6
2023-11-24T06:39:18.651Z,942.6
2023-11-24T06:40:20.530Z,942.5
2023-11-24T06:41:22.363Z,942.5
2023-11-24T06:42:24.232Z,942.5
2023-11-24T06:43:26.017Z,942.5
2023-11-24T06:44:27.959Z,942.5
2023-11-24T06:45:29.731Z,942.5
2023-11-24T06:46:31.681Z,942.5
2023-11-24T06:47:33.616Z,942.4
2023-11-24T06:48:35.780Z,942.4
2023-11-24T06:49:37.614Z,942.5
2023-11-24T06:50:39.408Z,942.4
2023-11-24T06:51:41.257Z,942.4
2023-11-24T06:52:43.263Z,942.4
2023-11-24T06:53:45.013Z,942.4
2023-11-24T06:54:46.980Z,942.3
2023-11-24T06:55:48.844Z,942.3
2023-11-24T06:56:50.734Z,942.3
2023-11-24T06:57:53.125Z,942.3
2023-11-24T06:58:55.677Z,942.2
2023-11-24T06:59:57.453Z,942.2
2023-11-24T07:00:59.468Z,942.2
2023-11-24T07:02:02.160Z,942.2
2023-11-24T07:03:04.586Z,942.2
2023-11-24T07:04:06.877Z,942.2
2023-11-24T07:05:09.009Z,942.1
2023-11-24T07:06:10.805Z,942.1
2023-11-24T07:07:12.845Z,942.1
2023-11-24T07:08:14.673Z,942.1
2023-11-24T07:09:16.465Z,942.1
2023-11-24T07:10:18.578Z,942
2023-11-24T07:11:20.610Z,942
2023-11-24T07:12:22.576Z,942
2023-11-24T07:13:24.465Z,942.1
2023-11-24T07:14:26.343Z,942
2023-11-24T07:15:28.139Z,942
2023-11-24T07:16:30.344Z,942
2023-11-24T07:17:32.275Z,942
2023-11-24T07:18:34.638Z,942
2023-11-24T07:19:37.130Z,941.9
2023-11-24T07:20:39.413Z,941.9
2023-11-24T07:21:41.218Z,941.9
2023-11-24T07:22:45.878Z,941.9
2023-11-24T07:23:47.710Z,941.9
2023-11-24T07:24:49.873Z,941.9
2023-11-24T07:25:51.642Z,941.9
2023-11-24T07:26:53.636Z,941.9
2023-11-24T07:27:55.488Z,941.8
2023-11-24T07:28:57.572Z,941.8
2023-11-24T07:29:59.316Z,941.8
2023-11-24T07:31:01.277Z,941.8
2023-11-24T07:32:03.466Z,941.8
2023-11-24T07:33:05.863Z,941.8
2023-11-24T07:34:12.259Z,941.8
2023-11-24T07:35:14.640Z,941.8
2023-11-24T07:36:16.700Z,941.9
2023-11-24T07:37:18.525Z,941.8
2023-11-24T07:38:20.308Z,941.8
2023-11-24T07:39:22.092Z,941.9
2023-11-24T07:40:23.948Z,941.9
2023-11-24T07:41:25.758Z,941.9
2023-11-24T07:42:27.597Z,941.9
2023-11-24T07:43:29.376Z,941.9
2023-11-24T07:44:31.242Z,941.9
2023-11-24T07:45:33.341Z,941.8
2023-11-24T07:46:35.725Z,941.8
2023-11-24T07:47:37.783Z,941.8
2023-11-24T07:48:39.856Z,941.9
2023-11-24T07:49:41.780Z,941.8
2023-11-24T07:50:43.569Z,941.8
2023-11-24T07:51:45.468Z,941.8
2023-11-24T07:52:47.322Z,941.8
2023-11-24T07:53:49.113Z,941.8
2023-11-24T07:54:50.928Z,941.8
2023-11-24T07:55:52.862Z,941.8
2023-11-24T07:56:54.731Z,941.8
2023-11-24T07:57:56.524Z,941.8
2023-11-24T07:58:58.338Z,941.8
2023-11-24T08:00:00.343Z,941.8
2023-11-24T08:01:04.753Z,941.8
2023-11-24T08:02:11.061Z,941.8
2023-11-24T08:03:13.156Z,941.8
2023-11-24T08:04:15.369Z,941.8
2023-11-24T08:05:17.479Z,941.8
2023-11-24T08:06:19.348Z,941.8
2023-11-24T08:07:21.202Z,941.8
2023-11-24T08:08:23.161Z,941.8
2023-11-24T08:09:24.963Z,941.7
2023-11-24T08:10:26.703Z,941.7
2023-11-24T08:11:28.439Z,941.7
2023-11-24T08:12:30.264Z,941.7
2023-11-24T08:13:32.102Z,941.8
2023-11-24T08:14:34.065Z,941.7
2023-11-24T08:15:36.310Z,941.7
2023-11-24T08:16:38.557Z,941.7
2023-11-24T08:17:40.931Z,941.6
2023-11-24T08:18:42.894Z,941.6
2023-11-24T08:19:44.714Z,941.6
2023-11-24T08:20:46.468Z,941.6
2023-11-24T08:21:48.334Z,941.6
2023-11-24T08:22:50.230Z,941.5
2023-11-24T08:23:52.049Z,941.5
2023-11-24T08:24:53.878Z,941.5
2023-11-24T08:25:55.607Z,941.4
2023-11-24T08:26:57.404Z,941.4
2023-11-24T08:27:59.441Z,941.4
2023-11-24T08:29:01.410Z,941.3
2023-11-24T08:30:03.191Z,941.3
2023-11-24T08:31:05.655Z,941.3
2023-11-24T08:32:07.695Z,941.3
2023-11-24T08:33:09.772Z,941.3
2023-11-24T08:34:11.946Z,941.2
2023-11-24T08:35:14.296Z,941.2
2023-11-24T08:36:16.296Z,941.2
2023-11-24T08:37:18.224Z,941.2
2023-11-24T08:38:20.163Z,941.2
2023-11-24T08:39:21.939Z,941.2
2023-11-24T08:40:23.759Z,941.1
2023-11-24T08:41:41.042Z,941.1
2023-11-24T08:42:42.970Z,941.1
2023-11-24T08:43:44.756Z,941
2023-11-24T08:44:46.643Z,941
2023-11-24T08:45:48.715Z,941
2023-11-24T08:46:51.002Z,941
2023-11-24T08:47:53.086Z,941
2023-11-24T08:48:55.399Z,941
2023-11-24T08:50:01.394Z,940.9
2023-11-24T08:51:03.140Z,941
2023-11-24T08:52:05.145Z,940.9
2023-11-24T08:53:07.137Z,940.9
2023-11-24T08:54:08.933Z,940.9
2023-11-24T08:55:10.874Z,940.9
2023-11-24T08:56:12.852Z,940.9
2023-11-24T08:57:14.643Z,940.9
2023-11-24T08:58:16.718Z,940.8
2023-11-24T08:59:18.610Z,940.8
2023-11-24T09:00:20.408Z,940.7
2023-11-24T09:01:22.489Z,940.8
2023-11-24T09:02:25.318Z,940.8
2023-11-24T09:03:27.387Z,940.8
2023-11-24T09:04:29.603Z,940.7
2023-11-24T09:05:31.493Z,940.7
2023-11-24T09:06:33.561Z,940.7
2023-11-24T09:07:35.349Z,940.6
2023-11-24T09:08:37.132Z,940.6
2023-11-24T09:09:38.970Z,940.6
2023-11-24T09:10:40.722Z,940.5
2023-11-24T09:11:42.470Z,940.6
2023-11-24T09:12:44.390Z,940.6
2023-11-24T09:13:50.183Z,940.6
2023-11-24T09:14:52.495Z,940.5
2023-11-24T09:15:54.699Z,940.6
2023-11-24T09:16:56.762Z,940.5
2023-11-24T09:17:59.068Z,940.5
2023-11-24T09:19:01.914Z,940.6
2023-11-24T09:20:03.844Z,940.5
2023-11-24T09:21:06.202Z,940.5
2023-11-24T09:22:08.626Z,940.5
2023-11-24T09:23:10.643Z,940.5
2023-11-24T09:24:12.461Z,940.5
2023-11-24T09:25:14.307Z,940.4
2023-11-24T09:26:16.450Z,940.4
2023-11-24T09:27:18.322Z,940.4
2023-11-24T09:28:20.518Z,940.3
2023-11-24T09:29:22.489Z,940.3
2023-11-24T09:30:24.492Z,940.3
2023-11-24T09:31:26.474Z,940.2
2023-11-24T09:32:28.478Z,940.2
2023-11-24T09:33:30.524Z,940.2
2023-11-24T09:34:32.722Z,940.2
2023-11-24T09:35:34.962Z,940.2
2023-11-24T09:36:36.884Z,940.2
2023-11-24T09:37:38.653Z,940.2
2023-11-24T09:38:40.390Z,940.1
2023-11-24T09:39:42.190Z,940.1
2023-11-24T09:40:44.000Z,940
2023-11-24T09:41:45.803Z,940
2023-11-24T09:42:48.266Z,940
2023-11-24T09:43:50.371Z,940
2023-11-24T09:44:52.322Z,939.9
2023-11-24T09:45:54.420Z,939.9
2023-11-24T09:46:56.738Z,939.9
2023-11-24T09:47:58.878Z,939.9
2023-11-24T09:49:01.021Z,939.9
2023-11-24T09:50:02.862Z,939.8
2023-11-24T09:51:04.729Z,939.8
2023-11-24T09:52:06.839Z,939.7
2023-11-24T09:53:08.608Z,939.7
2023-11-24T09:54:10.384Z,939.7
2023-11-24T09:55:12.217Z,939.8
2023-11-24T09:56:14.054Z,939.7
2023-11-24T09:57:15.822Z,939.7
2023-11-24T09:58:17.671Z,939.6
2023-11-24T09:59:19.566Z,939.6
2023-11-24T10:00:21.329Z,939.6
2023-11-24T10:01:23.380Z,939.6
2023-11-24T10:02:25.461Z,939.5
2023-11-24T10:03:27.618Z,939.5
2023-11-24T10:04:29.804Z,939.6
2023-11-24T10:05:32.610Z,939.6
2023-11-24T10:06:34.387Z,939.6
2023-11-24T10:07:36.170Z,939.5
2023-11-24T10:08:38.107Z,939.4
2023-11-24T10:09:39.939Z,939.3
2023-11-24T10:10:41.759Z,939.4
2023-11-24T10:11:43.537Z,939.4
2023-11-24T10:12:45.494Z,939.4
2023-11-24T10:13:51.966Z,939.3
2023-11-24T10:14:53.747Z,939.2
2023-11-24T10:15:55.624Z,939.3
2023-11-24T10:16:57.734Z,939.4
2023-11-24T10:18:00.961Z,939.3
2023-11-24T10:19:03.477Z,939.3
2023-11-24T10:20:05.483Z,939.3
2023-11-24T10:21:27.863Z,939.4
2023-11-24T10:22:35.060Z,939.2
2023-11-24T10:23:36.947Z,939.1
2023-11-24T10:24:38.998Z,939.1
2023-11-24T10:25:40.884Z,939.1
2023-11-24T10:26:42.646Z,939.1
2023-11-24T10:27:44.548Z,939.1
2023-11-24T10:28:46.378Z,939
2023-11-24T10:29:48.149Z,939
2023-11-24T10:30:50.092Z,938.9
2023-11-24T10:31:52.030Z,938.9
2023-11-24T10:32:54.032Z,939
2023-11-24T10:33:56.436Z,938.9
2023-11-24T10:34:59.091Z,938.9
2023-11-24T10:36:01.369Z,938.9
2023-11-24T10:37:03.385Z,938.9
2023-11-24T10:38:05.209Z,938.9
2023-11-24T10:39:06.978Z,938.8
2023-11-24T10:40:08.931Z,938.8
2023-11-24T10:41:10.857Z,938.9
2023-11-24T10:42:13.103Z,938.9
2023-11-24T10:43:14.928Z,938.9
2023-11-24T10:44:16.878Z,938.9
2023-11-24T10:45:18.657Z,938.8
2023-11-24T10:46:20.995Z,938.8
2023-11-24T10:47:23.557Z,938.8
2023-11-24T10:48:25.409Z,938.8
2023-11-24T10:49:27.167Z,938.8
2023-11-24T10:50:29.134Z,938.7
2023-11-24T10:51:31.016Z,938.7
2023-11-24T10:52:32.832Z,938.6
2023-11-24T10:53:34.609Z,938.6
2023-11-24T10:54:36.962Z,938.6
2023-11-24T10:55:38.694Z,938.6
2023-11-24T10:56:43.195Z,938.5
2023-11-24T10:57:45.307Z,938.6
2023-11-24T10:58:47.224Z,938.5
2023-11-24T10:59:48.975Z,938.5
2023-11-24T11:00:51.037Z,938.5
2023-11-24T11:01:53.635Z,938.5
2023-11-24T11:02:55.914Z,938.5
2023-11-24T11:03:59.457Z,938.4
2023-11-24T11:05:02.470Z,938.4
2023-11-24T11:06:04.353Z,938.3
2023-11-24T11:07:06.731Z,938.3
2023-11-24T11:08:08.998Z,938.2
2023-11-24T11:09:10.763Z,938.2
2023-11-24T11:10:12.712Z,938.2
2023-11-24T11:11:14.560Z,938.2
2023-11-24T11:12:16.290Z,938.2
2023-11-24T11:13:18.275Z,938.2
2023-11-24T11:14:20.410Z,938.2
2023-11-24T11:15:22.418Z,938.2
2023-11-24T11:16:24.406Z,938.2
2023-11-24T11:17:26.268Z,938.2
2023-11-24T11:18:28.031Z,938.2
2023-11-24T11:19:29.871Z,938.1
2023-11-24T11:20:31.666Z,938.1
2023-11-24T11:21:33.465Z,938
2023-11-24T11:22:35.431Z,938
2023-11-24T11:23:37.439Z,937.9
2023-11-24T11:24:39.373Z,937.9
2023-11-24T11:25:41.260Z,937.7
2023-11-24T11:26:43.014Z,937.8
2023-11-24T11:27:45.076Z,937.7
2023-11-24T11:28:46.952Z,937.8
2023-11-24T11:29:49.113Z,937.7
2023-11-24T11:30:51.557Z,937.6
2023-11-24T11:31:54.189Z,937.6
2023-11-24T11:32:56.388Z,937.6
2023-11-24T11:33:58.503Z,937.6
2023-11-24T11:35:00.665Z,937.7
2023-11-24T11:36:02.426Z,937.6
2023-11-24T11:37:04.509Z,937.7
2023-11-24T11:38:06.823Z,937.7
2023-11-24T11:39:08.763Z,937.7
2023-11-24T11:40:10.742Z,937.6
2023-11-24T11:41:13.436Z,937.6
2023-11-24T11:42:15.692Z,937.5
2023-11-24T11:43:17.836Z,937.6
2023-11-24T11:44:19.895Z,937.6
2023-11-24T11:45:21.893Z,937.6
2023-11-24T11:46:24.188Z,937.7
2023-11-24T11:47:26.675Z,937.7
2023-11-24T11:48:28.477Z,937.7
2023-11-24T11:49:34.808Z,937.6
2023-11-24T11:50:37.769Z,937.6
2023-11-24T11:51:39.825Z,937.6
2023-11-24T11:52:41.991Z,937.6
2023-11-24T11:53:44.236Z,937.5
2023-11-24T11:54:46.061Z,937.4
2023-11-24T11:55:47.829Z,937.4
2023-11-24T11:56:49.590Z,937.5
2023-11-24T11:57:51.401Z,937.6
2023-11-24T11:58:53.460Z,937.6
2023-11-24T12:00:00.431Z,937.5
2023-11-24T12:01:02.527Z,937.4
2023-11-24T12:02:04.954Z,937.4
2023-11-24T12:03:07.476Z,937.3
2023-11-24T12:04:09.638Z,937.2
2023-11-24T12:05:11.870Z,937.1
2023-11-24T12:06:13.678Z,937.2
2023-11-24T12:07:15.653Z,937.2
2023-11-24T12:08:17.474Z,937.3
2023-11-24T12:09:19.361Z,937.2
2023-11-24T12:10:21.240Z,937.1
2023-11-24T12:11:23.223Z,937.1
2023-11-24T12:12:25.123Z,937.1
2023-11-24T12:13:27.453Z,937.3
2023-11-24T12:14:29.409Z,937.2
2023-11-24T12:15:31.201Z,937.1
2023-11-24T12:16:33.366Z,937
2023-11-24T12:17:35.366Z,937
2023-11-24T12:18:37.189Z,937
2023-11-24T12:19:42.335Z,937
2023-11-24T12:20:44.144Z,937
2023-11-24T12:21:45.948Z,937
2023-11-24T12:22:47.762Z,937
2023-11-24T12:23:49.575Z,937
2023-11-24T12:24:51.946Z,936.9
2023-11-24T12:25:53.948Z,936.9
2023-11-24T12:26:55.700Z,936.9
2023-11-24T12:27:57.653Z,936.9
2023-11-24T12:28:59.514Z,936.9
2023-11-24T12:30:01.505Z,936.9
2023-11-24T12:31:03.659Z,936.8
2023-11-24T12:32:06.029Z,936.8
2023-11-24T12:33:08.127Z,936.7
2023-11-24T12:34:10.189Z,936.6
2023-11-24T12:35:12.125Z,936.6
2023-11-24T12:36:13.931Z,936.7
2023-11-24T12:37:16.149Z,936.6
2023-11-24T12:38:17.947Z,936.6
2023-11-24T12:39:19.696Z,936.4
2023-11-24T12:40:21.861Z,936.3
2023-11-24T12:41:23.706Z,936.4
2023-11-24T12:42:25.455Z,936.3
2023-11-24T12:43:27.440Z,936.3
2023-11-24T12:44:29.204Z,936.3
2023-11-24T12:45:31.538Z,936.2
2023-11-24T12:46:33.770Z,936.1
2023-11-24T12:47:43.132Z,936.1
2023-11-24T12:48:45.295Z,936
2023-11-24T12:49:47.138Z,936.1
2023-11-24T12:50:49.119Z,936.2
2023-11-24T12:51:51.095Z,936.2
2023-11-24T12:52:52.871Z,936.2
2023-11-24T12:53:54.641Z,936.1
2023-11-24T12:54:56.581Z,936.1
2023-11-24T12:55:58.778Z,936.1
2023-11-24T12:57:00.549Z,936.1
2023-11-24T12:58:02.432Z,936.1
2023-11-24T12:59:04.250Z,935.9
2023-11-24T13:00:06.118Z,935.9
2023-11-24T13:01:12.022Z,935.9
2023-11-24T13:02:13.939Z,935.9
2023-11-24T13:03:16.007Z,935.9
2023-11-24T13:04:18.238Z,935.9
2023-11-24T13:05:21.058Z,935.8
2023-11-24T13:06:23.196Z,935.8
2023-11-24T13:07:25.441Z,935.7
2023-11-24T13:08:27.463Z,935.8
2023-11-24T13:09:29.276Z,935.7
2023-11-24T13:10:31.076Z,935.5
2023-11-24T13:11:33.019Z,935.7
2023-11-24T13:12:34.817Z,935.9
2023-11-24T13:13:36.581Z,935.9
2023-11-24T13:14:38.296Z,935.8
2023-11-24T13:15:40.119Z,935.6
2023-11-24T13:16:42.261Z,935.6
2023-11-24T13:17:44.527Z,935.6
2023-11-24T13:18:46.643Z,935.6
2023-11-24T13:19:48.456Z,935.7
2023-11-24T13:20:50.191Z,935.7
2023-11-24T13:21:52.026Z,935.6
2023-11-24T13:22:53.881Z,935.6
2023-11-24T13:23:55.657Z,935.5